sensor_id;sensor_type;location;lat;lon;timestamp;pressure;altitude;pressure_sealevel;temperature;humidity
60489;BME280;46331;49.252;8.904;2023-07-16T00:00:26;99494.91;;;19.21;100.00
60489;BME280;46331;49.252;8.904;2023-07-16T00:01:09;99497.91;;;19.20;100.00
60489;BME280;46331;49.252;8.904;2023-07-16T00:01:49;99494.72;;;19.18;100.00
60489;BME280;46331;49.252;8.904;2023-07-16T00:02:30;99495.50;;;19.18;100.00
60489;BME280;46331;49.252;8.904;2023-07-16T00:03:10;99489.94;;;19.15;100.00
60489;BME280;46331;49.252;8.904;2023-07-16T00:03:51;99494.50;;;19.14;100.00
60489;BME280;46331;49.252;8.904;2023-07-16T00:04:32;99495.31;;;19.15;100.00
60489;BME280;46331;49.252;8.904;2023-07-16T00:05:12;99505.25;;;19.14;100.00
60489;BME280;46331;49.252;8.904;2023-07-16T00:05:53;99502.06;;;19.12;100.00
60489;BME280;46331;49.252;8.904;2023-07-16T00:06:34;99505.84;;;19.11;100.00
60489;BME280;46331;49.252;8.904;2023-07-16T00:07:14;99503.69;;;19.13;100.00
60489;BME280;46331;49.252;8.904;2023-07-16T00:07:55;99508.25;;;19.12;100.00
60489;BME280;46331;49.252;8.904;2023-07-16T00:08:36;99514.63;;;19.17;100.00
60489;BME280;46331;49.252;8.904;2023-07-16T00:09:17;99513.41;;;19.23;100.00
60489;BME280;46331;49.252;8.904;2023-07-16T00:09:57;99514.63;;;19.17;100.00
60489;BME280;46331;49.252;8.904;2023-07-16T00:10:38;99525.97;;;19.27;100.00
60489;BME280;46331;49.252;8.904;2023-07-16T00:11:19;99528.06;;;19.30;100.00
60489;BME280;46331;49.252;8.904;2023-07-16T00:11:59;99533.91;;;19.33;100.00
60489;BME280;46331;49.252;8.904;2023-07-16T00:12:40;99536.41;;;19.29;100.00
60489;BME280;46331;49.252;8.904;2023-07-16T00:13:21;99544.69;;;19.33;100.00
60489;BME280;46331;49.252;8.904;2023-07-16T00:14:01;99542.59;;;19.29;100.00
60489;BME280;46331;49.252;8.904;2023-07-16T00:14:42;99553.25;;;19.35;100.00
60489;BME280;46331;49.252;8.904;2023-07-16T00:15:23;99553.63;;;19.42;100.00
60489;BME280;46331;49.252;8.904;2023-07-16T00:16:03;99556.63;;;19.40;100.00
60489;BME280;46331;49.252;8.904;2023-07-16T00:16:44;99551.53;;;19.39;100.00
60489;BME280;46331;49.252;8.904;2023-07-16T00:17:25;99562.31;;;19.39;100.00
60489;BME280;46331;49.252;8.904;2023-07-16T00:18:05;99563.41;;;19.38;100.00
60489;BME280;46331;49.252;8.904;2023-07-16T00:18:46;99570.78;;;19.32;100.00
60489;BME280;46331;49.252;8.904;2023-07-16T00:19:26;99573.16;;;19.34;100.00
60489;BME280;46331;49.252;8.904;2023-07-16T00:20:07;99564.63;;;19.32;100.00
60489;BME280;46331;49.252;8.904;2023-07-16T00:20:49;99550.28;;;19.36;100.00
60489;BME280;46331;49.252;8.904;2023-07-16T00:21:29;99554.53;;;19.37;100.00
60489;BME280;46331;49.252;8.904;2023-07-16T00:22:10;99548.84;;;19.39;100.00
60489;BME280;46331;49.252;8.904;2023-07-16T00:22:51;99537.00;;;19.40;100.00
60489;BME280;46331;49.252;8.904;2023-07-16T00:23:31;99538.91;;;19.39;100.00
60489;BME280;46331;49.252;8.904;2023-07-16T00:24:12;99528.34;;;19.29;100.00
60489;BME280;46331;49.252;8.904;2023-07-16T00:24:52;99532.03;;;19.33;100.00
60489;BME280;46331;49.252;8.904;2023-07-16T00:25:33;99532.84;;;19.34;100.00
60489;BME280;46331;49.252;8.904;2023-07-16T00:26:15;99536.31;;;19.34;100.00
60489;BME280;46331;49.252;8.904;2023-07-16T00:26:57;99536.13;;;19.30;100.00
60489;BME280;46331;49.252;8.904;2023-07-16T00:27:37;99539.50;;;19.36;100.00
60489;BME280;46331;49.252;8.904;2023-07-16T00:28:18;99533.63;;;19.34;100.00
60489;BME280;46331;49.252;8.904;2023-07-16T00:28:58;99542.81;;;19.33;100.00
60489;BME280;46331;49.252;8.904;2023-07-16T00:29:39;99534.63;;;19.38;100.00
60489;BME280;46331;49.252;8.904;2023-07-16T00:30:19;99535.91;;;19.41;100.00
60489;BME280;46331;49.252;8.904;2023-07-16T00:31:00;99528.94;;;19.40;100.00
60489;BME280;46331;49.252;8.904;2023-07-16T00:31:41;99529.72;;;19.40;100.00
60489;BME280;46331;49.252;8.904;2023-07-16T00:32:22;99516.78;;;19.42;100.00
60489;BME280;46331;49.252;8.904;2023-07-16T00:33:02;99519.56;;;19.37;100.00
60489;BME280;46331;49.252;8.904;2023-07-16T00:33:43;99526.56;;;19.38;100.00
60489;BME280;46331;49.252;8.904;2023-07-16T00:34:23;99527.75;;;19.32;100.00
60489;BME280;46331;49.252;8.904;2023-07-16T00:35:04;99518.59;;;19.33;100.00
60489;BME280;46331;49.252;8.904;2023-07-16T00:35:47;99517.00;;;19.32;100.00
60489;BME280;46331;49.252;8.904;2023-07-16T00:36:29;99522.50;;;19.27;100.00
60489;BME280;46331;49.252;8.904;2023-07-16T00:37:09;99519.59;;;19.23;100.00
60489;BME280;46331;49.252;8.904;2023-07-16T00:37:50;99520.09;;;19.25;100.00
60489;BME280;46331;49.252;8.904;2023-07-16T00:38:32;99513.31;;;19.28;100.00
60489;BME280;46331;49.252;8.904;2023-07-16T00:39:12;99521.19;;;19.24;100.00
60489;BME280;46331;49.252;8.904;2023-07-16T00:39:53;99523.38;;;19.22;100.00
60489;BME280;46331;49.252;8.904;2023-07-16T00:40:33;99524.19;;;19.23;100.00
60489;BME280;46331;49.252;8.904;2023-07-16T00:41:14;99523.59;;;19.12;100.00
60489;BME280;46331;49.252;8.904;2023-07-16T00:41:55;99523.78;;;19.16;100.00
60489;BME280;46331;49.252;8.904;2023-07-16T00:42:36;99531.84;;;19.16;100.00
60489;BME280;46331;49.252;8.904;2023-07-16T00:43:17;99525.19;;;19.13;100.00
60489;BME280;46331;49.252;8.904;2023-07-16T00:43:58;99522.19;;;19.15;100.00
60489;BME280;46331;49.252;8.904;2023-07-16T00:44:38;99522.97;;;19.15;100.00
60489;BME280;46331;49.252;8.904;2023-07-16T00:45:19;99512.22;;;19.15;100.00
60489;BME280;46331;49.252;8.904;2023-07-16T00:45:59;99505.84;;;19.11;100.00
60489;BME280;46331;49.252;8.904;2023-07-16T00:46:40;99501.06;;;19.08;100.00
60489;BME280;46331;49.252;8.904;2023-07-16T00:47:21;99500.47;;;19.11;100.00
60489;BME280;46331;49.252;8.904;2023-07-16T00:48:06;99502.38;;;19.10;100.00
60489;BME280;46331;49.252;8.904;2023-07-16T00:48:48;99498.59;;;19.11;100.00
60489;BME280;46331;49.252;8.904;2023-07-16T00:49:29;99505.84;;;19.11;100.00
60489;BME280;46331;49.252;8.904;2023-07-16T00:50:10;99513.13;;;19.10;100.00
60489;BME280;46331;49.252;8.904;2023-07-16T00:50:53;99510.25;;;19.07;100.00
60489;BME280;46331;49.252;8.904;2023-07-16T00:51:34;99517.78;;;19.05;100.00
60489;BME280;46331;49.252;8.904;2023-07-16T00:52:18;99510.94;;;18.99;100.00
60489;BME280;46331;49.252;8.904;2023-07-16T00:53:00;99515.50;;;18.98;100.00
60489;BME280;46331;49.252;8.904;2023-07-16T00:53:41;99522.97;;;19.01;100.00
60489;BME280;46331;49.252;8.904;2023-07-16T00:54:22;99526.75;;;19.00;100.00
60489;BME280;46331;49.252;8.904;2023-07-16T00:55:03;99529.38;;;19.05;100.00
60489;BME280;46331;49.252;8.904;2023-07-16T00:55:43;99519.22;;;19.02;100.00
60489;BME280;46331;49.252;8.904;2023-07-16T00:56:24;99518.41;;;19.02;100.00
60489;BME280;46331;49.252;8.904;2023-07-16T00:57:05;99522.69;;;19.03;100.00
60489;BME280;46331;49.252;8.904;2023-07-16T00:57:46;99520.78;;;19.03;100.00
60489;BME280;46331;49.252;8.904;2023-07-16T00:58:27;99530.25;;;19.01;100.00
60489;BME280;46331;49.252;8.904;2023-07-16T00:59:09;99532.66;;;19.02;100.00
60489;BME280;46331;49.252;8.904;2023-07-16T00:59:49;99536.41;;;19.01;100.00
60489;BME280;46331;49.252;8.904;2023-07-16T01:00:35;99538.81;;;19.03;100.00
60489;BME280;46331;49.252;8.904;2023-07-16T01:01:16;99548.06;;;18.97;100.00
60489;BME280;46331;49.252;8.904;2023-07-16T01:01:56;99542.19;;;18.94;100.00
60489;BME280;46331;49.252;8.904;2023-07-16T01:02:37;99548.34;;;18.95;100.00
60489;BME280;46331;49.252;8.904;2023-07-16T01:03:18;99555.13;;;18.92;100.00
60489;BME280;46331;49.252;8.904;2023-07-16T01:03:58;99559.91;;;18.96;100.00
60489;BME280;46331;49.252;8.904;2023-07-16T01:04:39;99562.59;;;18.96;100.00
60489;BME280;46331;49.252;8.904;2023-07-16T01:05:21;99554.53;;;18.96;100.00
60489;BME280;46331;49.252;8.904;2023-07-16T01:06:25;99531.59;;;18.84;100.00
60489;BME280;46331;49.252;8.904;2023-07-16T01:07:11;99536.91;;;18.89;100.00
60489;BME280;46331;49.252;8.904;2023-07-16T01:07:57;99543.97;;;18.85;100.00
60489;BME280;46331;49.252;8.904;2023-07-16T01:08:42;99548.66;;;18.93;100.00
60489;BME280;46331;49.252;8.904;2023-07-16T01:09:25;99539.09;;;18.87;100.00
60489;BME280;46331;49.252;8.904;2023-07-16T01:10:06;99542.28;;;18.89;100.00
60489;BME280;46331;49.252;8.904;2023-07-16T01:10:49;99554.31;;;18.92;100.00
60489;BME280;46331;49.252;8.904;2023-07-16T01:11:30;99548.25;;;18.86;100.00
60489;BME280;46331;49.252;8.904;2023-07-16T01:12:12;99556.59;;;18.85;100.00
60489;BME280;46331;49.252;8.904;2023-07-16T01:12:55;99566.75;;;18.88;100.00
60489;BME280;46331;49.252;8.904;2023-07-16T01:13:39;99569.22;;;18.84;100.00
60489;BME280;46331;49.252;8.904;2023-07-16T01:14:21;99570.09;;;18.80;100.00
60489;BME280;46331;49.252;8.904;2023-07-16T01:15:03;99580.78;;;18.85;100.00
60489;BME280;46331;49.252;8.904;2023-07-16T01:15:44;99581.50;;;18.90;100.00
60489;BME280;46331;49.252;8.904;2023-07-16T01:16:25;99578.81;;;18.90;100.00
60489;BME280;46331;49.252;8.904;2023-07-16T01:17:06;99586.09;;;18.90;100.00
60489;BME280;46331;49.252;8.904;2023-07-16T01:17:47;99593.84;;;18.91;100.00
60489;BME280;46331;49.252;8.904;2023-07-16T01:18:27;99594.44;;;18.88;100.00
60489;BME280;46331;49.252;8.904;2023-07-16T01:19:08;99599.34;;;18.81;100.00
60489;BME280;46331;49.252;8.904;2023-07-16T01:19:49;99594.78;;;18.82;100.00
60489;BME280;46331;49.252;8.904;2023-07-16T01:20:30;99603.94;;;18.81;100.00
60489;BME280;46331;49.252;8.904;2023-07-16T01:21:10;99596.19;;;18.79;100.00
60489;BME280;46331;49.252;8.904;2023-07-16T01:24:49;99620.94;;;18.76;100.00
60489;BME280;46331;49.252;8.904;2023-07-16T01:25:36;99620.84;;;18.81;100.00
60489;BME280;46331;49.252;8.904;2023-07-16T01:26:36;99625.44;;;18.81;100.00
60489;BME280;46331;49.252;8.904;2023-07-16T01:27:42;99617.69;;;18.79;100.00
60489;BME280;46331;49.252;8.904;2023-07-16T01:28:39;99614.66;;;18.67;100.00
60489;BME280;46331;49.252;8.904;2023-07-16T01:29:31;99624.81;;;18.70;100.00
60489;BME280;46331;49.252;8.904;2023-07-16T01:30:15;99625.41;;;18.67;100.00
60489;BME280;46331;49.252;8.904;2023-07-16T01:30:58;99635.47;;;18.75;100.00
60489;BME280;46331;49.252;8.904;2023-07-16T01:31:40;99642.44;;;18.76;100.00
60489;BME280;46331;49.252;8.904;2023-07-16T01:32:22;99631.56;;;18.67;100.00
60489;BME280;46331;49.252;8.904;2023-07-16T01:33:04;99636.94;;;18.67;100.00
60489;BME280;46331;49.252;8.904;2023-07-16T01:33:45;99633.94;;;18.69;100.00
60489;BME280;46331;49.252;8.904;2023-07-16T01:34:29;99622.47;;;18.63;100.00
60489;BME280;46331;49.252;8.904;2023-07-16T01:35:12;99616.31;;;18.63;100.00
60489;BME280;46331;49.252;8.904;2023-07-16T01:35:54;99606.75;;;18.56;100.00
60489;BME280;46331;49.252;8.904;2023-07-16T01:36:36;99605.88;;;18.61;100.00
60489;BME280;46331;49.252;8.904;2023-07-16T01:37:17;99602.53;;;18.50;100.00
60489;BME280;46331;49.252;8.904;2023-07-16T01:37:58;99608.41;;;18.52;100.00
60489;BME280;46331;49.252;8.904;2023-07-16T01:38:38;99607.03;;;18.55;100.00
60489;BME280;46331;49.252;8.904;2023-07-16T01:39:19;99595.56;;;18.49;100.00
60489;BME280;46331;49.252;8.904;2023-07-16T01:40:01;99601.81;;;18.45;100.00
60489;BME280;46331;49.252;8.904;2023-07-16T01:40:42;99592.09;;;18.49;100.00
60489;BME280;46331;49.252;8.904;2023-07-16T01:41:22;99589.63;;;18.52;100.00
60489;BME280;46331;49.252;8.904;2023-07-16T01:42:05;99589.72;;;18.47;100.00
60489;BME280;46331;49.252;8.904;2023-07-16T01:42:46;99576.56;;;18.46;100.00
60489;BME280;46331;49.252;8.904;2023-07-16T01:43:26;99602.69;;;18.40;100.00
60489;BME280;46331;49.252;8.904;2023-07-16T01:44:07;99603.47;;;18.40;100.00
60489;BME280;46331;49.252;8.904;2023-07-16T01:44:47;99604.75;;;18.48;100.00
60489;BME280;46331;49.252;8.904;2023-07-16T01:45:28;99616.56;;;18.47;100.00
60489;BME280;46331;49.252;8.904;2023-07-16T01:46:09;99609.88;;;18.45;100.00
60489;BME280;46331;49.252;8.904;2023-07-16T01:48:37;99600.88;;;18.54;100.00
60489;BME280;46331;49.252;8.904;2023-07-16T01:49:17;99598.25;;;18.49;100.00
60489;BME280;46331;49.252;8.904;2023-07-16T01:49:58;99599.13;;;18.45;100.00
60489;BME280;46331;49.252;8.904;2023-07-16T01:50:38;99592.69;;;18.46;100.00
60489;BME280;46331;49.252;8.904;2023-07-16T01:51:19;99605.31;;;18.45;100.00
60489;BME280;46331;49.252;8.904;2023-07-16T01:52:04;99599.44;;;18.43;100.00
60489;BME280;46331;49.252;8.904;2023-07-16T01:52:47;99613.09;;;18.47;100.00
60489;BME280;46331;49.252;8.904;2023-07-16T01:53:27;99621.94;;;18.47;100.00
60489;BME280;46331;49.252;8.904;2023-07-16T01:54:08;99620.84;;;18.48;100.00
60489;BME280;46331;49.252;8.904;2023-07-16T01:54:48;99615.53;;;18.43;100.00
60489;BME280;46331;49.252;8.904;2023-07-16T01:55:29;99621.34;;;18.31;100.00
60489;BME280;46331;49.252;8.904;2023-07-16T01:56:10;99621.00;;;18.38;100.00
60489;BME280;46331;49.252;8.904;2023-07-16T01:56:51;99609.16;;;18.39;100.00
60489;BME280;46331;49.252;8.904;2023-07-16T01:57:31;99608.56;;;18.42;100.00
60489;BME280;46331;49.252;8.904;2023-07-16T01:58:12;99613.38;;;18.26;100.00
60489;BME280;46331;49.252;8.904;2023-07-16T01:58:52;99606.63;;;18.29;100.00
60489;BME280;46331;49.252;8.904;2023-07-16T01:59:33;99613.00;;;18.33;100.00
60489;BME280;46331;49.252;8.904;2023-07-16T02:00:14;99615.09;;;18.36;100.00
60489;BME280;46331;49.252;8.904;2023-07-16T02:01:00;99603.78;;;18.39;100.00
60489;BME280;46331;49.252;8.904;2023-07-16T02:01:41;99603.78;;;18.39;100.00
60489;BME280;46331;49.252;8.904;2023-07-16T02:02:21;99609.22;;;18.34;100.00
60489;BME280;46331;49.252;8.904;2023-07-16T02:03:02;99613.53;;;18.35;100.00
60489;BME280;46331;49.252;8.904;2023-07-16T02:03:46;99617.88;;;18.31;100.00
60489;BME280;46331;49.252;8.904;2023-07-16T02:04:26;99615.84;;;18.22;100.00
60489;BME280;46331;49.252;8.904;2023-07-16T02:05:07;99613.16;;;18.22;100.00
60489;BME280;46331;49.252;8.904;2023-07-16T02:05:47;99607.91;;;18.31;100.00
60489;BME280;46331;49.252;8.904;2023-07-16T02:06:28;99612.41;;;18.36;100.00
60489;BME280;46331;49.252;8.904;2023-07-16T02:07:09;99616.72;;;18.37;100.00
60489;BME280;46331;49.252;8.904;2023-07-16T02:07:50;99630.72;;;18.34;100.00
60489;BME280;46331;49.252;8.904;2023-07-16T02:08:30;99627.59;;;18.27;100.00
60489;BME280;46331;49.252;8.904;2023-07-16T02:09:11;99634.06;;;18.26;100.00
60489;BME280;46331;49.252;8.904;2023-07-16T02:09:51;99631.78;;;18.33;100.00
60489;BME280;46331;49.252;8.904;2023-07-16T02:10:32;99637.09;;;18.38;100.00
60489;BME280;46331;49.252;8.904;2023-07-16T02:11:12;99638.97;;;18.37;100.00
60489;BME280;46331;49.252;8.904;2023-07-16T02:11:53;99633.84;;;18.41;100.00
60489;BME280;46331;49.252;8.904;2023-07-16T02:12:33;99638.97;;;18.37;100.00
60489;BME280;46331;49.252;8.904;2023-07-16T02:13:14;99638.78;;;18.34;100.00
60489;BME280;46331;49.252;8.904;2023-07-16T02:13:54;99636.16;;;18.29;100.00
60489;BME280;46331;49.252;8.904;2023-07-16T02:14:35;99637.41;;;18.36;100.00
60489;BME280;46331;49.252;8.904;2023-07-16T02:15:16;99644.13;;;18.34;100.00
60489;BME280;46331;49.252;8.904;2023-07-16T02:15:58;99644.63;;;18.36;100.00
60489;BME280;46331;49.252;8.904;2023-07-16T02:16:38;99643.84;;;18.35;100.00
60489;BME280;46331;49.252;8.904;2023-07-16T02:17:19;99650.09;;;18.31;100.00
60489;BME280;46331;49.252;8.904;2023-07-16T02:17:59;99656.25;;;18.31;100.00
60489;BME280;46331;49.252;8.904;2023-07-16T02:18:40;99650.66;;;18.28;100.00
60489;BME280;46331;49.252;8.904;2023-07-16T02:19:20;99653.84;;;18.30;100.00
60489;BME280;46331;49.252;8.904;2023-07-16T02:20:01;99657.34;;;18.30;100.00
60489;BME280;46331;49.252;8.904;2023-07-16T02:20:45;99658.56;;;18.19;100.00
60489;BME280;46331;49.252;8.904;2023-07-16T02:21:25;99650.97;;;18.26;100.00
60489;BME280;46331;49.252;8.904;2023-07-16T02:22:06;99661.47;;;18.22;100.00
60489;BME280;46331;49.252;8.904;2023-07-16T02:22:46;99664.38;;;18.26;100.00
60489;BME280;46331;49.252;8.904;2023-07-16T02:23:27;99660.63;;;18.27;100.00
60489;BME280;46331;49.252;8.904;2023-07-16T02:24:08;99656.63;;;18.25;100.00
60489;BME280;46331;49.252;8.904;2023-07-16T02:24:48;99653.44;;;18.22;100.00
60489;BME280;46331;49.252;8.904;2023-07-16T02:25:29;99641.09;;;18.21;100.00
60489;BME280;46331;49.252;8.904;2023-07-16T02:26:09;99652.97;;;18.15;100.00
60489;BME280;46331;49.252;8.904;2023-07-16T02:26:50;99645.81;;;18.11;100.00
60489;BME280;46331;49.252;8.904;2023-07-16T02:27:30;99641.47;;;18.15;100.00
60489;BME280;46331;49.252;8.904;2023-07-16T02:28:11;99648.19;;;18.12;100.00
60489;BME280;46331;49.252;8.904;2023-07-16T02:28:52;99649.56;;;18.10;100.00
60489;BME280;46331;49.252;8.904;2023-07-16T02:29:32;99648.69;;;18.14;100.00
60489;BME280;46331;49.252;8.904;2023-07-16T02:30:16;99651.66;;;18.13;100.00
60489;BME280;46331;49.252;8.904;2023-07-16T02:30:58;99651.53;;;18.04;100.00
60489;BME280;46331;49.252;8.904;2023-07-16T02:31:38;99650.97;;;18.07;100.00
60489;BME280;46331;49.252;8.904;2023-07-16T02:32:19;99651.56;;;17.99;100.00
60489;BME280;46331;49.252;8.904;2023-07-16T02:32:59;99648.84;;;18.04;100.00
60489;BME280;46331;49.252;8.904;2023-07-16T02:33:42;99656.63;;;18.05;100.00
60489;BME280;46331;49.252;8.904;2023-07-16T02:34:22;99653.69;;;18.02;100.00
60489;BME280;46331;49.252;8.904;2023-07-16T02:35:03;99662.03;;;18.00;100.00
60489;BME280;46331;49.252;8.904;2023-07-16T02:35:49;99659.63;;;17.99;100.00
60489;BME280;46331;49.252;8.904;2023-07-16T02:36:30;99659.34;;;18.00;100.00
60489;BME280;46331;49.252;8.904;2023-07-16T02:37:11;99657.47;;;18.01;100.00
60489;BME280;46331;49.252;8.904;2023-07-16T02:37:51;99668.72;;;18.03;100.00
60489;BME280;46331;49.252;8.904;2023-07-16T02:38:33;99669.75;;;18.07;100.00
60489;BME280;46331;49.252;8.904;2023-07-16T02:39:13;99667.63;;;18.04;100.00
60489;BME280;46331;49.252;8.904;2023-07-16T02:39:54;99665.53;;;18.01;100.00
60489;BME280;46331;49.252;8.904;2023-07-16T02:40:34;99669.50;;;18.03;100.00
60489;BME280;46331;49.252;8.904;2023-07-16T02:41:15;99668.63;;;18.08;100.00
60489;BME280;46331;49.252;8.904;2023-07-16T02:41:55;99669.44;;;18.09;100.00
60489;BME280;46331;49.252;8.904;2023-07-16T02:42:38;99668.91;;;18.07;100.00
60489;BME280;46331;49.252;8.904;2023-07-16T02:43:19;99671.09;;;18.04;100.00
60489;BME280;46331;49.252;8.904;2023-07-16T02:44:03;99662.47;;;18.08;100.00
60489;BME280;46331;49.252;8.904;2023-07-16T02:44:44;99670.03;;;18.05;100.00
60489;BME280;46331;49.252;8.904;2023-07-16T02:45:25;99675.41;;;18.05;100.00
60489;BME280;46331;49.252;8.904;2023-07-16T02:46:05;99670.03;;;18.05;100.00
60489;BME280;46331;49.252;8.904;2023-07-16T02:46:46;99677.53;;;18.03;100.00
60489;BME280;46331;49.252;8.904;2023-07-16T02:47:26;99675.41;;;18.05;100.00
60489;BME280;46331;49.252;8.904;2023-07-16T02:48:07;99669.22;;;18.05;100.00
60489;BME280;46331;49.252;8.904;2023-07-16T02:48:49;99667.19;;;17.97;100.00
60489;BME280;46331;49.252;8.904;2023-07-16T02:49:30;99671.19;;;17.99;100.00
60489;BME280;46331;49.252;8.904;2023-07-16T02:50:11;99681.38;;;17.97;100.00
60489;BME280;46331;49.252;8.904;2023-07-16T02:50:52;99679.00;;;17.96;100.00
60489;BME280;46331;49.252;8.904;2023-07-16T02:51:33;99680.09;;;17.95;100.00
60489;BME280;46331;49.252;8.904;2023-07-16T02:52:13;99680.53;;;18.02;100.00
60489;BME280;46331;49.252;8.904;2023-07-16T02:52:54;99681.91;;;17.99;100.00
60489;BME280;46331;49.252;8.904;2023-07-16T02:53:34;99687.50;;;18.03;100.00
60489;BME280;46331;49.252;8.904;2023-07-16T02:54:15;99687.50;;;18.03;100.00
60489;BME280;46331;49.252;8.904;2023-07-16T02:54:55;99688.06;;;18.00;100.00
60489;BME280;46331;49.252;8.904;2023-07-16T02:55:36;99682.69;;;18.00;100.00
60489;BME280;46331;49.252;8.904;2023-07-16T02:56:17;99689.69;;;18.01;100.00
60489;BME280;46331;49.252;8.904;2023-07-16T02:56:58;99679.44;;;18.03;100.00
60489;BME280;46331;49.252;8.904;2023-07-16T02:57:39;99683.72;;;18.04;100.00
60489;BME280;46331;49.252;8.904;2023-07-16T02:58:21;99679.72;;;18.01;100.00
60489;BME280;46331;49.252;8.904;2023-07-16T02:59:02;99673.56;;;18.01;100.00
60489;BME280;46331;49.252;8.904;2023-07-16T02:59:42;99683.72;;;18.04;100.00
60489;BME280;46331;49.252;8.904;2023-07-16T03:00:23;99676.75;;;18.03;100.00
60489;BME280;46331;49.252;8.904;2023-07-16T03:01:04;99683.50;;;18.00;100.00
60489;BME280;46331;49.252;8.904;2023-07-16T03:01:44;99680.22;;;18.03;100.00
60489;BME280;46331;49.252;8.904;2023-07-16T03:02:25;99681.91;;;17.99;100.00
60489;BME280;46331;49.252;8.904;2023-07-16T03:03:05;99685.31;;;18.05;100.00
60489;BME280;46331;49.252;8.904;2023-07-16T03:03:46;99690.19;;;18.03;100.00
60489;BME280;46331;49.252;8.904;2023-07-16T03:04:26;99686.91;;;18.06;100.00
60489;BME280;46331;49.252;8.904;2023-07-16T03:05:07;99690.94;;;18.09;100.00
60489;BME280;46331;49.252;8.904;2023-07-16T03:05:48;99687.22;;;18.04;100.00
60489;BME280;46331;49.252;8.904;2023-07-16T03:06:31;99689.59;;;18.06;100.00
60489;BME280;46331;49.252;8.904;2023-07-16T03:07:12;99686.72;;;18.02;100.00
60489;BME280;46331;49.252;8.904;2023-07-16T03:07:52;99682.06;;;18.08;100.00
60489;BME280;46331;49.252;8.904;2023-07-16T03:08:34;99680.19;;;18.09;100.00
60489;BME280;46331;49.252;8.904;2023-07-16T03:09:15;99680.97;;;18.09;100.00
60489;BME280;46331;49.252;8.904;2023-07-16T03:09:55;99682.88;;;18.09;100.00
60489;BME280;46331;49.252;8.904;2023-07-16T03:10:36;99682.91;;;18.03;100.00
60489;BME280;46331;49.252;8.904;2023-07-16T03:11:17;99686.91;;;18.06;100.00
60489;BME280;46331;49.252;8.904;2023-07-16T03:11:58;99691.22;;;18.07;100.00
60489;BME280;46331;49.252;8.904;2023-07-16T03:12:39;99686.13;;;18.05;100.00
60489;BME280;46331;49.252;8.904;2023-07-16T03:13:20;99689.88;;;18.04;100.00
60489;BME280;46331;49.252;8.904;2023-07-16T03:14:00;99699.25;;;18.07;100.00
60489;BME280;46331;49.252;8.904;2023-07-16T03:14:41;99690.97;;;18.03;100.00
60489;BME280;46331;49.252;8.904;2023-07-16T03:15:21;99691.22;;;18.07;100.00
60489;BME280;46331;49.252;8.904;2023-07-16T03:16:02;99696.03;;;18.05;100.00
60489;BME280;46331;49.252;8.904;2023-07-16T03:16:42;99696.28;;;18.09;100.00
60489;BME280;46331;49.252;8.904;2023-07-16T03:17:24;99697.06;;;18.09;100.00
60489;BME280;46331;49.252;8.904;2023-07-16T03:18:04;99691.03;;;17.98;100.00
60489;BME280;46331;49.252;8.904;2023-07-16T03:18:46;99695.03;;;18.01;100.00
60489;BME280;46331;49.252;8.904;2023-07-16T03:19:26;99690.47;;;18.01;100.00
60489;BME280;46331;49.252;8.904;2023-07-16T03:20:07;99691.81;;;17.99;100.00
60489;BME280;46331;49.252;8.904;2023-07-16T03:20:49;99687.78;;;18.01;100.00
60489;BME280;46331;49.252;8.904;2023-07-16T03:21:30;99681.91;;;17.99;100.00
60489;BME280;46331;49.252;8.904;2023-07-16T03:22:10;99675.97;;;18.02;100.00
60489;BME280;46331;49.252;8.904;2023-07-16T03:22:51;99678.94;;;18.01;100.00
60489;BME280;46331;49.252;8.904;2023-07-16T03:23:32;99684.88;;;17.98;100.00
60489;BME280;46331;49.252;8.904;2023-07-16T03:24:12;99692.84;;;18.03;100.00
60489;BME280;46331;49.252;8.904;2023-07-16T03:24:53;99687.28;;;17.99;100.00
60489;BME280;46331;49.252;8.904;2023-07-16T03:25:33;99695.63;;;17.98;100.00
60489;BME280;46331;49.252;8.904;2023-07-16T03:26:14;99693.16;;;18.01;100.00
60489;BME280;46331;49.252;8.904;2023-07-16T03:26:55;99690.69;;;18.05;100.00
60489;BME280;46331;49.252;8.904;2023-07-16T03:27:36;99689.88;;;18.04;100.00
60489;BME280;46331;49.252;8.904;2023-07-16T03:28:17;99692.06;;;18.02;100.00
60489;BME280;46331;49.252;8.904;2023-07-16T03:28:57;99690.81;;;17.95;100.00
60489;BME280;46331;49.252;8.904;2023-07-16T03:29:38;99695.63;;;17.98;100.00
60489;BME280;46331;49.252;8.904;2023-07-16T03:30:19;99695.34;;;17.99;100.00
60489;BME280;46331;49.252;8.904;2023-07-16T03:31:01;99701.19;;;18.01;100.00
60489;BME280;46331;49.252;8.904;2023-07-16T03:31:41;99698.59;;;17.96;100.00
60489;BME280;46331;49.252;8.904;2023-07-16T03:32:23;99687.59;;;17.93;100.00
60489;BME280;46331;49.252;8.904;2023-07-16T03:33:04;99694.50;;;17.99;100.00
60489;BME280;46331;49.252;8.904;2023-07-16T03:33:45;99689.09;;;18.04;100.00
60489;BME280;46331;49.252;8.904;2023-07-16T03:34:27;99684.88;;;17.98;100.00
60489;BME280;46331;49.252;8.904;2023-07-16T03:35:08;99688.63;;;17.97;100.00
60489;BME280;46331;49.252;8.904;2023-07-16T03:35:49;99689.97;;;17.99;100.00
60489;BME280;46331;49.252;8.904;2023-07-16T03:36:32;99689.88;;;18.04;100.00
60489;BME280;46331;49.252;8.904;2023-07-16T03:37:13;99698.22;;;18.03;100.00
60489;BME280;46331;49.252;8.904;2023-07-16T03:37:53;99700.41;;;18.01;100.00
60489;BME280;46331;49.252;8.904;2023-07-16T03:38:36;99704.75;;;17.97;100.00
60489;BME280;46331;49.252;8.904;2023-07-16T03:39:16;99704.66;;;18.02;100.00
60489;BME280;46331;49.252;8.904;2023-07-16T03:40:12;99702.81;;;18.02;100.00
60489;BME280;46331;49.252;8.904;2023-07-16T03:40:53;99706.06;;;17.99;100.00
60489;BME280;46331;49.252;8.904;2023-07-16T03:41:33;99693.44;;;18.00;100.00